sensor_id;sensor_type;location;lat;lon;timestamp;pressure;altitude;pressure_sealevel;temperature
33267;BMP180;19638;49.080;11.896;2023-06-22T00:03:24;96566.00;;;17.60
33267;BMP180;19638;49.080;11.896;2023-06-22T00:07:30;96558.00;;;17.60
33267;BMP180;19638;49.080;11.896;2023-06-22T00:11:35;96553.00;;;17.50
33267;BMP180;19638;49.080;11.896;2023-06-22T00:15:39;96541.00;;;17.40
33267;BMP180;19638;49.080;11.896;2023-06-22T00:19:43;96543.00;;;17.40
33267;BMP180;19638;49.080;11.896;2023-06-22T00:23:49;96531.00;;;17.30
33267;BMP180;19638;49.080;11.896;2023-06-22T00:27:53;96524.00;;;17.30
33267;BMP180;19638;49.080;11.896;2023-06-22T00:31:58;96518.00;;;17.30
33267;BMP180;19638;49.080;11.896;2023-06-22T00:36:07;96515.00;;;17.20
33267;BMP180;19638;49.080;11.896;2023-06-22T00:40:18;96505.00;;;17.10
33267;BMP180;19638;49.080;11.896;2023-06-22T00:44:24;96510.00;;;17.20
33267;BMP180;19638;49.080;11.896;2023-06-22T00:48:30;96514.00;;;17.50
33267;BMP180;19638;49.080;11.896;2023-06-22T00:52:34;96503.00;;;17.70
33267;BMP180;19638;49.080;11.896;2023-06-22T00:56:37;96500.00;;;17.90
33267;BMP180;19638;49.080;11.896;2023-06-22T01:00:42;96499.00;;;18.10
33267;BMP180;19638;49.080;11.896;2023-06-22T01:04:47;96494.00;;;18.20
33267;BMP180;19638;49.080;11.896;2023-06-22T01:08:53;96484.00;;;18.40
33267;BMP180;19638;49.080;11.896;2023-06-22T01:13:02;96488.00;;;18.70
33267;BMP180;19638;49.080;11.896;2023-06-22T01:17:08;96501.00;;;18.80
33267;BMP180;19638;49.080;11.896;2023-06-22T01:21:16;96503.00;;;18.90
33267;BMP180;19638;49.080;11.896;2023-06-22T01:25:22;96503.00;;;19.00
33267;BMP180;19638;49.080;11.896;2023-06-22T01:29:32;96497.00;;;19.00
33267;BMP180;19638;49.080;11.896;2023-06-22T01:33:39;96497.00;;;19.00
33267;BMP180;19638;49.080;11.896;2023-06-22T01:37:46;96510.00;;;19.00
33267;BMP180;19638;49.080;11.896;2023-06-22T01:41:55;96513.00;;;19.00
33267;BMP180;19638;49.080;11.896;2023-06-22T01:46:11;96521.00;;;18.70
33267;BMP180;19638;49.080;11.896;2023-06-22T01:50:17;96521.00;;;18.40
33267;BMP180;19638;49.080;11.896;2023-06-22T01:54:20;96520.00;;;18.10
33267;BMP180;19638;49.080;11.896;2023-06-22T01:58:25;96514.00;;;17.90
33267;BMP180;19638;49.080;11.896;2023-06-22T02:02:33;96516.00;;;17.80
33267;BMP180;19638;49.080;11.896;2023-06-22T02:06:43;96521.00;;;17.60
33267;BMP180;19638;49.080;11.896;2023-06-22T02:10:48;96521.00;;;17.50
33267;BMP180;19638;49.080;11.896;2023-06-22T02:14:57;96522.00;;;17.30
33267;BMP180;19638;49.080;11.896;2023-06-22T02:19:07;96517.00;;;17.20
33267;BMP180;19638;49.080;11.896;2023-06-22T02:23:10;96518.00;;;17.10
33267;BMP180;19638;49.080;11.896;2023-06-22T02:27:13;96520.00;;;17.00
33267;BMP180;19638;49.080;11.896;2023-06-22T02:31:17;96513.00;;;17.00
33267;BMP180;19638;49.080;11.896;2023-06-22T02:35:21;96512.00;;;17.00
33267;BMP180;19638;49.080;11.896;2023-06-22T02:39:25;96507.00;;;16.90
33267;BMP180;19638;49.080;11.896;2023-06-22T02:43:28;96496.00;;;16.90
33267;BMP180;19638;49.080;11.896;2023-06-22T02:47:31;96504.00;;;16.80
33267;BMP180;19638;49.080;11.896;2023-06-22T02:51:42;96507.00;;;16.80
33267;BMP180;19638;49.080;11.896;2023-06-22T02:55:53;96504.00;;;16.80
33267;BMP180;19638;49.080;11.896;2023-06-22T03:00:01;96498.00;;;16.80
33267;BMP180;19638;49.080;11.896;2023-06-22T03:04:13;96500.00;;;16.90
33267;BMP180;19638;49.080;11.896;2023-06-22T03:08:19;96496.00;;;17.20
33267;BMP180;19638;49.080;11.896;2023-06-22T03:12:22;96488.00;;;17.60
33267;BMP180;19638;49.080;11.896;2023-06-22T03:16:28;96486.00;;;17.80
33267;BMP180;19638;49.080;11.896;2023-06-22T03:20:36;96480.00;;;18.00
33267;BMP180;19638;49.080;11.896;2023-06-22T03:24:40;96484.00;;;18.10
33267;BMP180;19638;49.080;11.896;2023-06-22T03:28:45;96483.00;;;18.20
33267;BMP180;19638;49.080;11.896;2023-06-22T03:32:48;96487.00;;;18.30
33267;BMP180;19638;49.080;11.896;2023-06-22T03:36:51;96486.00;;;18.40
33267;BMP180;19638;49.080;11.896;2023-06-22T03:40:58;96497.00;;;18.40
33267;BMP180;19638;49.080;11.896;2023-06-22T03:45:05;96503.00;;;18.20
33267;BMP180;19638;49.080;11.896;2023-06-22T03:49:08;96501.00;;;18.10
33267;BMP180;19638;49.080;11.896;2023-06-22T03:53:16;96513.00;;;18.10
33267;BMP180;19638;49.080;11.896;2023-06-22T03:57:21;96525.00;;;18.10
33267;BMP180;19638;49.080;11.896;2023-06-22T04:01:24;96526.00;;;18.20
33267;BMP180;19638;49.080;11.896;2023-06-22T04:05:30;96533.00;;;18.50
33267;BMP180;19638;49.080;11.896;2023-06-22T04:09:33;96522.00;;;18.70
33267;BMP180;19638;49.080;11.896;2023-06-22T04:13:39;96527.00;;;19.10
33267;BMP180;19638;49.080;11.896;2023-06-22T04:17:45;96524.00;;;19.40
33267;BMP180;19638;49.080;11.896;2023-06-22T04:21:49;96524.00;;;19.70
33267;BMP180;19638;49.080;11.896;2023-06-22T04:25:55;96528.00;;;20.00
33267;BMP180;19638;49.080;11.896;2023-06-22T04:30:05;96533.00;;;20.30
33267;BMP180;19638;49.080;11.896;2023-06-22T04:34:08;96527.00;;;20.60
33267;BMP180;19638;49.080;11.896;2023-06-22T04:38:13;96512.00;;;20.90
33267;BMP180;19638;49.080;11.896;2023-06-22T04:42:19;96519.00;;;21.10
33267;BMP180;19638;49.080;11.896;2023-06-22T04:46:24;96512.00;;;21.10
33267;BMP180;19638;49.080;11.896;2023-06-22T04:50:31;96506.00;;;21.00
33267;BMP180;19638;49.080;11.896;2023-06-22T04:54:35;96515.00;;;20.90
33267;BMP180;19638;49.080;11.896;2023-06-22T04:58:41;96515.00;;;20.90
33267;BMP180;19638;49.080;11.896;2023-06-22T05:02:46;96510.00;;;20.80
33267;BMP180;19638;49.080;11.896;2023-06-22T05:06:50;96512.00;;;21.00
33267;BMP180;19638;49.080;11.896;2023-06-22T05:10:56;96494.00;;;21.20
33267;BMP180;19638;49.080;11.896;2023-06-22T05:15:08;96492.00;;;21.20
33267;BMP180;19638;49.080;11.896;2023-06-22T05:19:16;96477.00;;;21.30
33267;BMP180;19638;49.080;11.896;2023-06-22T05:23:20;96485.00;;;21.40
33267;BMP180;19638;49.080;11.896;2023-06-22T05:27:23;96488.00;;;21.60
33267;BMP180;19638;49.080;11.896;2023-06-22T05:31:26;96483.00;;;21.70
33267;BMP180;19638;49.080;11.896;2023-06-22T05:35:31;96489.00;;;21.90
33267;BMP180;19638;49.080;11.896;2023-06-22T05:39:34;96492.00;;;22.10
33267;BMP180;19638;49.080;11.896;2023-06-22T05:43:39;96487.00;;;22.40
33267;BMP180;19638;49.080;11.896;2023-06-22T05:47:44;96499.00;;;22.70
33267;BMP180;19638;49.080;11.896;2023-06-22T05:51:49;96502.00;;;23.00
33267;BMP180;19638;49.080;11.896;2023-06-22T05:55:52;96490.00;;;23.40
33267;BMP180;19638;49.080;11.896;2023-06-22T05:59:57;96475.00;;;23.60
33267;BMP180;19638;49.080;11.896;2023-06-22T06:04:01;96476.00;;;23.90
33267;BMP180;19638;49.080;11.896;2023-06-22T06:08:09;96467.00;;;24.20
33267;BMP180;19638;49.080;11.896;2023-06-22T06:12:16;96472.00;;;24.50
33267;BMP180;19638;49.080;11.896;2023-06-22T06:16:22;96474.00;;;24.60
33267;BMP180;19638;49.080;11.896;2023-06-22T06:20:26;96474.00;;;24.70
33267;BMP180;19638;49.080;11.896;2023-06-22T06:24:35;96463.00;;;25.00
33267;BMP180;19638;49.080;11.896;2023-06-22T06:28:39;96457.00;;;25.60
33267;BMP180;19638;49.080;11.896;2023-06-22T06:32:43;96462.00;;;25.90
33267;BMP180;19638;49.080;11.896;2023-06-22T06:36:47;96459.00;;;25.90
33267;BMP180;19638;49.080;11.896;2023-06-22T06:40:53;96457.00;;;26.00
33267;BMP180;19638;49.080;11.896;2023-06-22T06:44:57;96455.00;;;26.20
33267;BMP180;19638;49.080;11.896;2023-06-22T06:49:00;96458.00;;;26.60
33267;BMP180;19638;49.080;11.896;2023-06-22T06:53:03;96450.00;;;26.80
33267;BMP180;19638;49.080;11.896;2023-06-22T06:57:08;96449.00;;;27.10
33267;BMP180;19638;49.080;11.896;2023-06-22T07:01:12;96452.00;;;27.30
33267;BMP180;19638;49.080;11.896;2023-06-22T07:05:18;96449.00;;;27.70
33267;BMP180;19638;49.080;11.896;2023-06-22T07:09:21;96434.00;;;28.20
33267;BMP180;19638;49.080;11.896;2023-06-22T07:13:26;96436.00;;;28.30
33267;BMP180;19638;49.080;11.896;2023-06-22T07:17:31;96433.00;;;28.50
33267;BMP180;19638;49.080;11.896;2023-06-22T07:21:35;96438.00;;;28.70
33267;BMP180;19638;49.080;11.896;2023-06-22T07:25:41;96434.00;;;28.80
33267;BMP180;19638;49.080;11.896;2023-06-22T07:29:47;96428.00;;;29.00
33267;BMP180;19638;49.080;11.896;2023-06-22T07:33:50;96442.00;;;29.20
33267;BMP180;19638;49.080;11.896;2023-06-22T07:37:55;96439.00;;;29.60
33267;BMP180;19638;49.080;11.896;2023-06-22T07:41:58;96425.00;;;30.00
33267;BMP180;19638;49.080;11.896;2023-06-22T07:46:03;96418.00;;;30.50
33267;BMP180;19638;49.080;11.896;2023-06-22T07:50:10;96418.00;;;31.40
33267;BMP180;19638;49.080;11.896;2023-06-22T07:54:13;96424.00;;;32.30
33267;BMP180;19638;49.080;11.896;2023-06-22T07:58:19;96427.00;;;32.60
33267;BMP180;19638;49.080;11.896;2023-06-22T08:02:23;96420.00;;;33.00
33267;BMP180;19638;49.080;11.896;2023-06-22T08:06:29;96429.00;;;33.20
33267;BMP180;19638;49.080;11.896;2023-06-22T08:10:32;96428.00;;;33.50
33267;BMP180;19638;49.080;11.896;2023-06-22T08:14:38;96421.00;;;33.70
33267;BMP180;19638;49.080;11.896;2023-06-22T08:18:43;96420.00;;;34.20
33267;BMP180;19638;49.080;11.896;2023-06-22T08:22:46;96433.00;;;34.60
33267;BMP180;19638;49.080;11.896;2023-06-22T08:26:51;96414.00;;;34.50
33267;BMP180;19638;49.080;11.896;2023-06-22T08:30:54;96422.00;;;34.80
33267;BMP180;19638;49.080;11.896;2023-06-22T08:35:01;96407.00;;;35.10
33267;BMP180;19638;49.080;11.896;2023-06-22T08:39:08;96427.00;;;35.10
33267;BMP180;19638;49.080;11.896;2023-06-22T08:43:14;96427.00;;;35.20
33267;BMP180;19638;49.080;11.896;2023-06-22T08:47:20;96413.00;;;35.40
33267;BMP180;19638;49.080;11.896;2023-06-22T08:51:26;96417.00;;;35.50
33267;BMP180;19638;49.080;11.896;2023-06-22T08:55:30;96421.00;;;35.60
33267;BMP180;19638;49.080;11.896;2023-06-22T08:59:34;96430.00;;;36.10
33267;BMP180;19638;49.080;11.896;2023-06-22T09:03:37;96429.00;;;36.40
33267;BMP180;19638;49.080;11.896;2023-06-22T09:07:42;96427.00;;;36.60
33267;BMP180;19638;49.080;11.896;2023-06-22T09:11:45;96421.00;;;37.00
33267;BMP180;19638;49.080;11.896;2023-06-22T09:15:50;96424.00;;;37.30
33267;BMP180;19638;49.080;11.896;2023-06-22T09:19:54;96416.00;;;37.50
33267;BMP180;19638;49.080;11.896;2023-06-22T09:24:01;96420.00;;;37.80
33267;BMP180;19638;49.080;11.896;2023-06-22T09:28:05;96412.00;;;37.90
33267;BMP180;19638;49.080;11.896;2023-06-22T09:32:11;96411.00;;;37.50
33267;BMP180;19638;49.080;11.896;2023-06-22T09:36:14;96413.00;;;37.50
33267;BMP180;19638;49.080;11.896;2023-06-22T09:40:22;96417.00;;;37.80
33267;BMP180;19638;49.080;11.896;2023-06-22T09:44:26;96411.00;;;38.20
33267;BMP180;19638;49.080;11.896;2023-06-22T09:48:29;96403.00;;;38.50
33267;BMP180;19638;49.080;11.896;2023-06-22T09:52:50;96395.00;;;38.40
33267;BMP180;19638;49.080;11.896;2023-06-22T09:56:58;96391.00;;;38.60
33267;BMP180;19638;49.080;11.896;2023-06-22T10:01:02;96390.00;;;38.90
33267;BMP180;19638;49.080;11.896;2023-06-22T10:05:08;96389.00;;;38.70
33267;BMP180;19638;49.080;11.896;2023-06-22T10:09:12;96385.00;;;39.00
33267;BMP180;19638;49.080;11.896;2023-06-22T10:13:17;96389.00;;;39.00
33267;BMP180;19638;49.080;11.896;2023-06-22T10:17:21;96378.00;;;38.60
33267;BMP180;19638;49.080;11.896;2023-06-22T10:21:25;96378.00;;;39.00
33267;BMP180;19638;49.080;11.896;2023-06-22T10:25:29;96367.00;;;39.40
33267;BMP180;19638;49.080;11.896;2023-06-22T10:29:35;96371.00;;;39.30
33267;BMP180;19638;49.080;11.896;2023-06-22T10:33:39;96359.00;;;38.90
33267;BMP180;19638;49.080;11.896;2023-06-22T10:37:45;96354.00;;;38.50
33267;BMP180;19638;49.080;11.896;2023-06-22T10:41:48;96358.00;;;39.00
33267;BMP180;19638;49.080;11.896;2023-06-22T10:45:55;96344.00;;;39.40
33267;BMP180;19638;49.080;11.896;2023-06-22T10:49:59;96344.00;;;39.90
33267;BMP180;19638;49.080;11.896;2023-06-22T10:54:09;96349.00;;;40.10
33267;BMP180;19638;49.080;11.896;2023-06-22T10:58:15;96340.00;;;39.60
33267;BMP180;19638;49.080;11.896;2023-06-22T11:02:20;96334.00;;;39.70
33267;BMP180;19638;49.080;11.896;2023-06-22T11:06:25;96329.00;;;39.80
33267;BMP180;19638;49.080;11.896;2023-06-22T11:10:28;96332.00;;;39.90
33267;BMP180;19638;49.080;11.896;2023-06-22T11:14:41;96328.00;;;40.20
33267;BMP180;19638;49.080;11.896;2023-06-22T11:18:53;96313.00;;;40.30
33267;BMP180;19638;49.080;11.896;2023-06-22T11:22:58;96309.00;;;40.40
33267;BMP180;19638;49.080;11.896;2023-06-22T11:27:02;96296.00;;;39.80
33267;BMP180;19638;49.080;11.896;2023-06-22T11:31:10;96298.00;;;39.50
33267;BMP180;19638;49.080;11.896;2023-06-22T11:35:18;96305.00;;;39.70
33267;BMP180;19638;49.080;11.896;2023-06-22T11:39:24;96306.00;;;39.80
33267;BMP180;19638;49.080;11.896;2023-06-22T11:43:46;96305.00;;;40.40
33267;BMP180;19638;49.080;11.896;2023-06-22T11:47:53;96298.00;;;40.50
33267;BMP180;19638;49.080;11.896;2023-06-22T11:51:58;96299.00;;;40.40
33267;BMP180;19638;49.080;11.896;2023-06-22T11:56:04;96293.00;;;40.90
33267;BMP180;19638;49.080;11.896;2023-06-22T12:00:12;96307.00;;;41.10
33267;BMP180;19638;49.080;11.896;2023-06-22T12:04:19;96302.00;;;41.50
33267;BMP180;19638;49.080;11.896;2023-06-22T12:08:29;96294.00;;;41.30
33267;BMP180;19638;49.080;11.896;2023-06-22T12:12:32;96293.00;;;41.50
33267;BMP180;19638;49.080;11.896;2023-06-22T12:16:36;96288.00;;;41.80
33267;BMP180;19638;49.080;11.896;2023-06-22T12:20:43;96284.00;;;42.30
33267;BMP180;19638;49.080;11.896;2023-06-22T12:24:51;96274.00;;;42.70
33267;BMP180;19638;49.080;11.896;2023-06-22T12:28:56;96272.00;;;42.90
33267;BMP180;19638;49.080;11.896;2023-06-22T12:33:04;96268.00;;;43.00
33267;BMP180;19638;49.080;11.896;2023-06-22T12:37:09;96263.00;;;42.30
33267;BMP180;19638;49.080;11.896;2023-06-22T12:41:14;96261.00;;;42.10
33267;BMP180;19638;49.080;11.896;2023-06-22T12:45:17;96256.00;;;42.20
33267;BMP180;19638;49.080;11.896;2023-06-22T12:49:23;96245.00;;;42.20
33267;BMP180;19638;49.080;11.896;2023-06-22T12:53:26;96244.00;;;42.10
33267;BMP180;19638;49.080;11.896;2023-06-22T12:57:34;96246.00;;;41.80
33267;BMP180;19638;49.080;11.896;2023-06-22T13:01:37;96238.00;;;41.40
33267;BMP180;19638;49.080;11.896;2023-06-22T13:05:42;96242.00;;;41.30
33267;BMP180;19638;49.080;11.896;2023-06-22T13:09:47;96237.00;;;41.30
33267;BMP180;19638;49.080;11.896;2023-06-22T13:13:55;96223.00;;;41.60
33267;BMP180;19638;49.080;11.896;2023-06-22T13:17:59;96230.00;;;42.10
33267;BMP180;19638;49.080;11.896;2023-06-22T13:22:02;96230.00;;;42.20
33267;BMP180;19638;49.080;11.896;2023-06-22T13:26:07;96218.00;;;41.80
33267;BMP180;19638;49.080;11.896;2023-06-22T13:30:15;96209.00;;;41.70
33267;BMP180;19638;49.080;11.896;2023-06-22T13:34:19;96206.00;;;41.90
33267;BMP180;19638;49.080;11.896;2023-06-22T13:38:22;96188.00;;;42.60
33267;BMP180;19638;49.080;11.896;2023-06-22T13:42:27;96167.00;;;43.10
33267;BMP180;19638;49.080;11.896;2023-06-22T13:46:31;96182.00;;;43.20
33267;BMP180;19638;49.080;11.896;2023-06-22T13:50:34;96203.00;;;42.50
33267;BMP180;19638;49.080;11.896;2023-06-22T13:54:38;96183.00;;;42.60
33267;BMP180;19638;49.080;11.896;2023-06-22T13:58:44;96185.00;;;41.80
33267;BMP180;19638;49.080;11.896;2023-06-22T14:02:48;96173.00;;;41.20
33267;BMP180;19638;49.080;11.896;2023-06-22T14:06:57;96167.00;;;40.80
33267;BMP180;19638;49.080;11.896;2023-06-22T14:11:00;96168.00;;;40.40
33267;BMP180;19638;49.080;11.896;2023-06-22T14:15:04;96167.00;;;40.40
33267;BMP180;19638;49.080;11.896;2023-06-22T14:19:13;96167.00;;;40.50
33267;BMP180;19638;49.080;11.896;2023-06-22T14:23:18;96169.00;;;41.30
33267;BMP180;19638;49.080;11.896;2023-06-22T14:27:21;96170.00;;;42.00
33267;BMP180;19638;49.080;11.896;2023-06-22T14:31:24;96170.00;;;42.40
33267;BMP180;19638;49.080;11.896;2023-06-22T14:35:29;96167.00;;;42.40
33267;BMP180;19638;49.080;11.896;2023-06-22T14:39:34;96166.00;;;42.70
33267;BMP180;19638;49.080;11.896;2023-06-22T14:43:37;96164.00;;;42.50
33267;BMP180;19638;49.080;11.896;2023-06-22T14:47:40;96164.00;;;42.30
33267;BMP180;19638;49.080;11.896;2023-06-22T14:51:44;96161.00;;;42.30
33267;BMP180;19638;49.080;11.896;2023-06-22T14:55:47;96158.00;;;42.20
33267;BMP180;19638;49.080;11.896;2023-06-22T14:59:51;96139.00;;;42.50
33267;BMP180;19638;49.080;11.896;2023-06-22T15:04:03;96147.00;;;42.50
33267;BMP180;19638;49.080;11.896;2023-06-22T15:08:08;96128.00;;;42.40
33267;BMP180;19638;49.080;11.896;2023-06-22T15:12:12;96128.00;;;42.30
33267;BMP180;19638;49.080;11.896;2023-06-22T15:16:16;96126.00;;;42.30
33267;BMP180;19638;49.080;11.896;2023-06-22T15:20:19;96121.00;;;42.10
33267;BMP180;19638;49.080;11.896;2023-06-22T15:24:24;96104.00;;;42.10
33267;BMP180;19638;49.080;11.896;2023-06-22T15:28:28;96092.00;;;42.50
33267;BMP180;19638;49.080;11.896;2023-06-22T15:32:31;96082.00;;;42.70
33267;BMP180;19638;49.080;11.896;2023-06-22T15:36:34;96075.00;;;42.80
33267;BMP180;19638;49.080;11.896;2023-06-22T15:40:39;96058.00;;;43.10
33267;BMP180;19638;49.080;11.896;2023-06-22T15:44:43;96047.00;;;43.20
33267;BMP180;19638;49.080;11.896;2023-06-22T15:48:46;96037.00;;;43.20
33267;BMP180;19638;49.080;11.896;2023-06-22T15:52:53;96039.00;;;43.00
33267;BMP180;19638;49.080;11.896;2023-06-22T15:57:02;96041.00;;;43.10
33267;BMP180;19638;49.080;11.896;2023-06-22T16:01:06;96025.00;;;43.00
33267;BMP180;19638;49.080;11.896;2023-06-22T16:05:12;96016.00;;;42.70
33267;BMP180;19638;49.080;11.896;2023-06-22T16:09:16;96004.00;;;42.40
33267;BMP180;19638;49.080;11.896;2023-06-22T16:13:23;95991.00;;;42.40
33267;BMP180;19638;49.080;11.896;2023-06-22T16:17:28;95980.00;;;42.60
33267;BMP180;19638;49.080;11.896;2023-06-22T16:21:31;95978.00;;;42.70
33267;BMP180;19638;49.080;11.896;2023-06-22T16:25:35;95978.00;;;42.70
33267;BMP180;19638;49.080;11.896;2023-06-22T16:29:40;95982.00;;;42.70
33267;BMP180;19638;49.080;11.896;2023-06-22T16:33:46;95981.00;;;42.70
33267;BMP180;19638;49.080;11.896;2023-06-22T16:37:53;95979.00;;;42.70
33267;BMP180;19638;49.080;11.896;2023-06-22T16:41:57;95970.00;;;42.60
33267;BMP180;19638;49.080;11.896;2023-06-22T16:46:02;95971.00;;;42.00
33267;BMP180;19638;49.080;11.896;2023-06-22T16:50:05;95955.00;;;41.60
33267;BMP180;19638;49.080;11.896;2023-06-22T16:54:09;95955.00;;;41.50
33267;BMP180;19638;49.080;11.896;2023-06-22T16:58:13;95953.00;;;41.70
33267;BMP180;19638;49.080;11.896;2023-06-22T17:02:22;95952.00;;;42.00
33267;BMP180;19638;49.080;11.896;2023-06-22T17:06:26;95959.00;;;41.90
33267;BMP180;19638;49.080;11.896;2023-06-22T17:10:31;95939.00;;;41.70
33267;BMP180;19638;49.080;11.896;2023-06-22T17:14:42;95936.00;;;41.20
33267;BMP180;19638;49.080;11.896;2023-06-22T17:18:49;95919.00;;;40.80
33267;BMP180;19638;49.080;11.896;2023-06-22T17:22:53;95922.00;;;40.70
33267;BMP180;19638;49.080;11.896;2023-06-22T17:26:57;95904.00;;;40.60
33267;BMP180;19638;49.080;11.896;2023-06-22T17:31:10;95928.00;;;40.40
33267;BMP180;19638;49.080;11.896;2023-06-22T17:35:15;95950.00;;;40.50
33267;BMP180;19638;49.080;11.896;2023-06-22T17:39:20;95956.00;;;40.10
33267;BMP180;19638;49.080;11.896;2023-06-22T17:43:25;95966.00;;;39.60
33267;BMP180;19638;49.080;11.896;2023-06-22T17:47:30;95965.00;;;38.80
33267;BMP180;19638;49.080;11.896;2023-06-22T17:51:38;95949.00;;;38.20
33267;BMP180;19638;49.080;11.896;2023-06-22T17:55:42;95959.00;;;37.60
33267;BMP180;19638;49.080;11.896;2023-06-22T17:59:49;95977.00;;;37.00
33267;BMP180;19638;49.080;11.896;2023-06-22T18:03:58;95996.00;;;36.50
33267;BMP180;19638;49.080;11.896;2023-06-22T18:08:04;96013.00;;;35.90
33267;BMP180;19638;49.080;11.896;2023-06-22T18:12:09;96052.00;;;35.40
33267;BMP180;19638;49.080;11.896;2023-06-22T18:16:16;96093.00;;;34.70
33267;BMP180;19638;49.080;11.896;2023-06-22T18:20:22;96095.00;;;34.10
33267;BMP180;19638;49.080;11.896;2023-06-22T18:24:31;96075.00;;;33.60
33267;BMP180;19638;49.080;11.896;2023-06-22T18:28:38;96010.00;;;32.90
33267;BMP180;19638;49.080;11.896;2023-06-22T18:32:41;95949.00;;;29.50
33267;BMP180;19638;49.080;11.896;2023-06-22T18:36:48;95924.00;;;27.80
33267;BMP180;19638;49.080;11.896;2023-06-22T18:40:53;95940.00;;;26.90
33267;BMP180;19638;49.080;11.896;2023-06-22T18:44:56;95999.00;;;26.50
33267;BMP180;19638;49.080;11.896;2023-06-22T18:49:02;96050.00;;;26.30
33267;BMP180;19638;49.080;11.896;2023-06-22T18:53:10;96072.00;;;25.80
33267;BMP180;19638;49.080;11.896;2023-06-22T18:57:16;96057.00;;;25.20
33267;BMP180;19638;49.080;11.896;2023-06-22T19:01:22;96057.00;;;24.80
33267;BMP180;19638;49.080;11.896;2023-06-22T19:05:37;96044.00;;;24.70
33267;BMP180;19638;49.080;11.896;2023-06-22T19:09:41;96003.00;;;24.60
33267;BMP180;19638;49.080;11.896;2023-06-22T19:13:50;95977.00;;;24.50
33267;BMP180;19638;49.080;11.896;2023-06-22T19:17:59;95929.00;;;24.40
33267;BMP180;19638;49.080;11.896;2023-06-22T19:22:09;95935.00;;;24.40
33267;BMP180;19638;49.080;11.896;2023-06-22T19:26:13;95912.00;;;24.40
33267;BMP180;19638;49.080;11.896;2023-06-22T19:30:18;95866.00;;;24.40
33267;BMP180;19638;49.080;11.896;2023-06-22T19:34:22;95836.00;;;24.30
33267;BMP180;19638;49.080;11.896;2023-06-22T19:38:26;95838.00;;;24.30
33267;BMP180;19638;49.080;11.896;2023-06-22T19:42:29;95836.00;;;24.30
33267;BMP180;19638;49.080;11.896;2023-06-22T19:46:34;95840.00;;;24.20
33267;BMP180;19638;49.080;11.896;2023-06-22T19:50:41;95849.00;;;24.20
33267;BMP180;19638;49.080;11.896;2023-06-22T19:54:49;95856.00;;;24.10
33267;BMP180;19638;49.080;11.896;2023-06-22T19:58:52;95857.00;;;24.10
33267;BMP180;19638;49.080;11.896;2023-06-22T20:02:56;95819.00;;;24.10
33267;BMP180;19638;49.080;11.896;2023-06-22T20:07:04;95795.00;;;24.10
33267;BMP180;19638;49.080;11.896;2023-06-22T20:11:23;95798.00;;;24.00
33267;BMP180;19638;49.080;11.896;2023-06-22T20:15:28;95781.00;;;24.00
33267;BMP180;19638;49.080;11.896;2023-06-22T20:19:37;95790.00;;;23.90
33267;BMP180;19638;49.080;11.896;2023-06-22T20:23:43;95822.00;;;23.90
33267;BMP180;19638;49.080;11.896;2023-06-22T20:27:47;95940.00;;;23.90
33267;BMP180;19638;49.080;11.896;2023-06-22T20:32:03;96031.00;;;23.90
33267;BMP180;19638;49.080;11.896;2023-06-22T20:36:08;96078.00;;;23.80
33267;BMP180;19638;49.080;11.896;2023-06-22T20:40:12;96095.00;;;23.60
33267;BMP180;19638;49.080;11.896;2023-06-22T20:44:16;96170.00;;;23.50
33267;BMP180;19638;49.080;11.896;2023-06-22T20:48:19;96210.00;;;23.40
33267;BMP180;19638;49.080;11.896;2023-06-22T20:52:40;96202.00;;;23.10
33267;BMP180;19638;49.080;11.896;2023-06-22T20:56:46;96182.00;;;22.90
33267;BMP180;19638;49.080;11.896;2023-06-22T21:00:49;96170.00;;;22.70
33267;BMP180;19638;49.080;11.896;2023-06-22T21:04:52;96188.00;;;22.60
33267;BMP180;19638;49.080;11.896;2023-06-22T21:08:57;96222.00;;;22.50
33267;BMP180;19638;49.080;11.896;2023-06-22T21:13:01;96228.00;;;22.00
33267;BMP180;19638;49.080;11.896;2023-06-22T21:17:04;96222.00;;;21.60
33267;BMP180;19638;49.080;11.896;2023-06-22T21:21:10;96219.00;;;21.40
33267;BMP180;19638;49.080;11.896;2023-06-22T21:25:15;96219.00;;;21.20
33267;BMP180;19638;49.080;11.896;2023-06-22T21:29:18;96186.00;;;21.00
33267;BMP180;19638;49.080;11.896;2023-06-22T21:33:27;96171.00;;;20.80
33267;BMP180;19638;49.080;11.896;2023-06-22T21:37:37;96154.00;;;20.60
33267;BMP180;19638;49.080;11.896;2023-06-22T21:41:46;96133.00;;;20.50
33267;BMP180;19638;49.080;11.896;2023-06-22T21:45:56;96148.00;;;20.40
33267;BMP180;19638;49.080;11.896;2023-06-22T21:50:03;96190.00;;;20.40
33267;BMP180;19638;49.080;11.896;2023-06-22T21:54:06;96234.00;;;20.40
33267;BMP180;19638;49.080;11.896;2023-06-22T21:58:13;96248.00;;;20.50
33267;BMP180;19638;49.080;11.896;2023-06-22T22:02:16;96240.00;;;20.50
33267;BMP180;19638;49.080;11.896;2023-06-22T22:06:21;96231.00;;;20.60
33267;BMP180;19638;49.080;11.896;2023-06-22T22:10:25;96204.00;;;20.60
33267;BMP180;19638;49.080;11.896;2023-06-22T22:14:29;96175.00;;;20.50
33267;BMP180;19638;49.080;11.896;2023-06-22T22:18:34;96165.00;;;20.40
33267;BMP180;19638;49.080;11.896;2023-06-22T22:22:38;96165.00;;;20.40
33267;BMP180;19638;49.080;11.896;2023-06-22T22:26:47;96181.00;;;20.40
33267;BMP180;19638;49.080;11.896;2023-06-22T22:30:51;96178.00;;;20.40
33267;BMP180;19638;49.080;11.896;2023-06-22T22:34:57;96190.00;;;20.50
33267;BMP180;19638;49.080;11.896;2023-06-22T22:39:00;96207.00;;;20.60
33267;BMP180;19638;49.080;11.896;2023-06-22T22:43:04;96209.00;;;20.60
33267;BMP180;19638;49.080;11.896;2023-06-22T22:47:11;96189.00;;;20.50
33267;BMP180;19638;49.080;11.896;2023-06-22T22:51:17;96204.00;;;20.50
33267;BMP180;19638;49.080;11.896;2023-06-22T22:55:20;96219.00;;;20.50
33267;BMP180;19638;49.080;11.896;2023-06-22T22:59:24;96222.00;;;20.50
33267;BMP180;19638;49.080;11.896;2023-06-22T23:03:29;96247.00;;;20.50
33267;BMP180;19638;49.080;11.896;2023-06-22T23:07:32;96238.00;;;20.40
33267;BMP180;19638;49.080;11.896;2023-06-22T23:11:40;96254.00;;;20.40
33267;BMP180;19638;49.080;11.896;2023-06-22T23:15:45;96270.00;;;20.20